createdAt,value
2017-12-22T00:01:18.501Z,1.02
2017-12-22T00:03:45.161Z,1.16
2017-12-22T00:06:11.817Z,1.27
2017-12-22T00:08:38.491Z,1.17
2017-12-22T00:11:05.160Z,1.33
2017-12-22T00:13:31.807Z,1.47
2017-12-22T00:15:58.567Z,1.54
2017-12-22T00:18:25.216Z,1.56
2017-12-22T00:20:51.917Z,1.50
2017-12-22T00:23:18.670Z,1.59
2017-12-22T00:25:45.396Z,1.56
2017-12-22T00:28:12.112Z,1.55
2017-12-22T00:30:38.920Z,1.52
2017-12-22T00:33:05.577Z,1.66
2017-12-22T00:35:33.336Z,1.71
2017-12-22T00:37:59.978Z,2.34
2017-12-22T00:40:27.589Z,2.87
2017-12-22T00:42:55.006Z,3.38
2017-12-22T00:45:21.702Z,3.86
2017-12-22T00:47:48.356Z,4.25
2017-12-22T00:50:15.010Z,4.56
2017-12-22T00:52:41.760Z,4.66
2017-12-22T00:55:08.402Z,4.89
2017-12-22T00:57:35.795Z,5.13
2017-12-22T01:00:02.481Z,5.26
2017-12-22T01:02:29.112Z,5.35
2017-12-22T01:04:55.783Z,5.46
2017-12-22T01:07:22.533Z,5.49
2017-12-22T01:09:49.254Z,5.57
2017-12-22T01:12:15.898Z,5.65
2017-12-22T01:14:42.565Z,4.42
2017-12-22T01:30:29.979Z,3.12
2017-12-22T01:32:56.642Z,2.98
2017-12-22T01:35:23.290Z,2.99
2017-12-22T01:37:50.001Z,2.91
2017-12-22T01:40:16.674Z,2.80
2017-12-22T01:42:43.391Z,2.79
2017-12-22T01:45:10.050Z,2.74
2017-12-22T01:47:36.732Z,2.51
2017-12-22T01:50:04.107Z,2.49
2017-12-22T01:52:31.623Z,2.29
2017-12-22T01:54:58.287Z,2.22
2017-12-22T01:57:25.483Z,2.24
2017-12-22T01:59:53.115Z,2.14
2017-12-22T02:02:20.679Z,2.17
2017-12-22T02:04:47.342Z,2.09
2017-12-22T02:07:14.733Z,2.20
2017-12-22T02:09:41.409Z,2.13
2017-12-22T02:12:08.046Z,2.22
2017-12-22T02:14:34.691Z,2.32
2017-12-22T02:17:01.440Z,2.29
2017-12-22T02:19:28.091Z,2.13
2017-12-22T02:21:54.742Z,2.28
2017-12-22T02:24:22.179Z,2.28
2017-12-22T02:26:49.126Z,2.22
2017-12-22T02:29:15.777Z,2.21
2017-12-22T02:31:42.778Z,2.18
2017-12-22T02:34:09.583Z,2.08
2017-12-22T02:36:36.263Z,1.96
2017-12-22T02:39:03.094Z,1.74
2017-12-22T02:41:30.483Z,1.65
2017-12-22T02:43:57.142Z,1.57
2017-12-22T02:46:24.214Z,1.76
2017-12-22T02:48:50.863Z,1.88
2017-12-22T02:51:18.399Z,1.93
2017-12-22T02:53:45.039Z,1.93
2017-12-22T02:56:11.793Z,1.94
2017-12-22T02:58:38.426Z,1.84
2017-12-22T03:01:05.075Z,1.84
2017-12-22T03:03:31.772Z,1.87
2017-12-22T03:05:59.149Z,1.89
2017-12-22T03:08:25.772Z,1.59
2017-12-22T03:10:53.172Z,1.52
2017-12-22T03:13:19.817Z,1.29
2017-12-22T03:15:46.570Z,1.42
2017-12-22T03:18:13.309Z,1.52
2017-12-22T03:20:40.676Z,1.42
2017-12-22T03:23:07.369Z,1.57
2017-12-22T03:25:34.746Z,1.58
2017-12-22T03:28:01.423Z,1.60
2017-12-22T03:30:28.091Z,1.67
2017-12-22T03:32:54.717Z,1.65
2017-12-22T03:35:22.982Z,1.21
2017-12-22T03:37:49.677Z,1.03
2017-12-22T03:40:17.059Z,1.23
2017-12-22T03:42:43.808Z,1.15
2017-12-22T03:45:10.501Z,1.38
2017-12-22T03:47:37.130Z,1.39
2017-12-22T03:50:03.834Z,1.43
2017-12-22T03:52:30.488Z,1.39
2017-12-22T03:54:57.131Z,1.45
2017-12-22T03:57:24.586Z,1.46
2017-12-22T03:59:51.282Z,1.48
2017-12-22T04:02:17.931Z,1.51
2017-12-22T04:04:45.331Z,1.46
2017-12-22T04:07:12.002Z,1.44
2017-12-22T04:09:38.771Z,1.37
2017-12-22T04:12:05.426Z,1.16
2017-12-22T04:14:32.844Z,0.81
2017-12-22T04:16:59.474Z,0.74
2017-12-22T04:19:26.111Z,0.79
2017-12-22T04:21:52.794Z,0.92
2017-12-22T04:24:19.438Z,0.91
2017-12-22T04:26:46.074Z,0.95
2017-12-22T04:29:12.753Z,0.90
2017-12-22T04:31:39.393Z,0.85
2017-12-22T04:34:06.040Z,0.69
2017-12-22T04:36:32.717Z,0.74
2017-12-22T04:38:59.357Z,0.80
2017-12-22T04:41:26.930Z,0.74
2017-12-22T04:43:53.604Z,0.47
2017-12-22T04:46:20.583Z,0.61
2017-12-22T04:48:47.257Z,0.63
2017-12-22T04:51:13.915Z,0.67
2017-12-22T04:53:41.326Z,0.72
2017-12-22T04:56:07.963Z,0.72
2017-12-22T04:58:35.369Z,0.53
2017-12-22T05:01:03.012Z,0.54
2017-12-22T05:03:29.688Z,0.23
2017-12-22T05:05:56.324Z,0.27
2017-12-22T05:08:22.974Z,0.30
2017-12-22T05:10:49.611Z,0.13
2017-12-22T05:13:16.652Z,0.21
2017-12-22T05:15:43.335Z,0.33
2017-12-22T05:18:10.708Z,0.46
2017-12-22T05:20:38.091Z,0.36
2017-12-22T05:23:04.836Z,0.17
2017-12-22T05:25:31.467Z,0.34
2017-12-22T05:27:58.892Z,0.35
2017-12-22T05:30:26.323Z,0.50
2017-12-22T05:32:53.713Z,0.54
2017-12-22T05:35:21.122Z,0.54
2017-12-22T05:37:47.875Z,0.17
2017-12-22T05:40:14.542Z,0.16
2017-12-22T05:42:41.200Z,0.10
2017-12-22T05:45:08.621Z,0.10
2017-12-22T05:47:35.240Z,0.22
2017-12-22T05:50:01.880Z,0.37
2017-12-22T05:52:28.587Z,0.58
2017-12-22T05:54:56.746Z,0.72
2017-12-22T05:57:23.427Z,0.76
2017-12-22T05:59:50.089Z,0.74
2017-12-22T06:02:16.742Z,0.83
2017-12-22T06:04:43.389Z,0.76
2017-12-22T06:07:10.064Z,0.82
2017-12-22T06:09:36.716Z,0.43
2017-12-22T06:12:03.366Z,0.31
2017-12-22T06:14:30.783Z,0.27
2017-12-22T06:16:58.217Z,0.27
2017-12-22T06:19:24.849Z,0.53
2017-12-22T06:21:51.528Z,0.42
2017-12-22T06:24:18.937Z,0.57
2017-12-22T06:26:46.362Z,0.66
2017-12-22T06:29:13.028Z,0.67
2017-12-22T06:31:39.671Z,0.76
2017-12-22T06:34:06.343Z,0.89
2017-12-22T06:36:33.034Z,0.98
2017-12-22T06:38:59.682Z,0.96
2017-12-22T06:41:26.337Z,1.11
2017-12-22T06:43:53.094Z,1.10
2017-12-22T06:46:20.881Z,1.11
2017-12-22T06:48:47.514Z,1.06
2017-12-22T06:51:15.861Z,1.18
2017-12-22T06:53:42.611Z,1.28
2017-12-22T06:56:09.362Z,1.23
2017-12-22T06:58:36.038Z,1.82
2017-12-22T07:01:02.685Z,2.58
2017-12-22T07:03:29.309Z,3.21
2017-12-22T07:05:58.570Z,3.96
2017-12-22T07:08:25.201Z,4.11
2017-12-22T07:10:51.910Z,4.24
2017-12-22T07:13:18.637Z,4.46
2017-12-22T07:15:46.046Z,4.13
2017-12-22T07:18:12.700Z,4.20
2017-12-22T07:20:39.375Z,4.24
2017-12-22T07:23:06.754Z,4.12
2017-12-22T07:25:33.430Z,4.11
2017-12-22T07:28:00.916Z,4.06
2017-12-22T07:30:27.646Z,3.94
2017-12-22T07:32:54.277Z,3.63
2017-12-22T07:35:20.948Z,3.54
2017-12-22T07:37:47.596Z,3.49
2017-12-22T07:40:14.235Z,3.65
2017-12-22T07:42:41.690Z,3.38
2017-12-22T07:45:08.331Z,3.67
2017-12-22T07:47:34.978Z,3.82
2017-12-22T07:50:01.629Z,4.17
2017-12-22T07:52:28.276Z,4.88
2017-12-22T07:54:55.783Z,6.41
2017-12-22T07:57:22.475Z,9.38
2017-12-22T07:59:49.132Z,11.93
2017-12-22T08:02:16.515Z,13.14
2017-12-22T08:04:43.195Z,13.96
2017-12-22T08:07:09.845Z,13.64
2017-12-22T08:09:36.501Z,12.97
2017-12-22T08:12:03.197Z,12.30
2017-12-22T08:14:29.849Z,12.12
2017-12-22T08:16:56.501Z,11.57
2017-12-22T08:19:23.926Z,11.07
2017-12-22T08:21:50.637Z,10.55
2017-12-22T08:24:17.885Z,9.77
2017-12-22T08:26:45.563Z,9.49
2017-12-22T08:29:12.976Z,8.74
2017-12-22T08:31:39.732Z,8.65
2017-12-22T08:34:06.445Z,8.73
2017-12-22T08:36:33.105Z,8.13
2017-12-22T08:38:59.743Z,8.18
2017-12-22T08:41:26.409Z,8.05
2017-12-22T08:43:53.077Z,7.96
2017-12-22T08:46:19.726Z,7.64
2017-12-22T08:48:47.145Z,7.38
2017-12-22T08:51:14.814Z,7.57
2017-12-22T08:53:42.059Z,7.31
2017-12-22T08:56:08.759Z,6.77
2017-12-22T08:58:36.234Z,6.84
2017-12-22T09:01:02.893Z,6.80
2017-12-22T09:03:29.605Z,6.98
2017-12-22T09:05:57.033Z,7.07
2017-12-22T09:08:23.678Z,7.18
2017-12-22T09:10:50.325Z,7.18
2017-12-22T09:13:16.961Z,7.32
2017-12-22T09:15:43.607Z,7.07
2017-12-22T09:18:10.287Z,7.22
2017-12-22T09:20:37.677Z,6.84
2017-12-22T09:23:04.297Z,6.78
2017-12-22T09:25:31.066Z,6.99
2017-12-22T09:27:57.718Z,6.53
2017-12-22T09:30:24.391Z,6.20
2017-12-22T09:32:51.095Z,6.00
2017-12-22T09:35:17.799Z,6.09
2017-12-22T09:37:45.193Z,5.41
2017-12-22T09:40:11.882Z,5.58
2017-12-22T09:42:38.548Z,5.57
2017-12-22T09:45:05.197Z,5.77
2017-12-22T09:47:31.899Z,5.98
2017-12-22T09:49:58.555Z,6.17
2017-12-22T09:52:25.208Z,6.32
2017-12-22T09:54:52.631Z,6.17
2017-12-22T09:57:19.283Z,6.50
2017-12-22T09:59:45.933Z,6.68
2017-12-22T10:02:13.106Z,6.68
2017-12-22T10:04:40.501Z,6.95
2017-12-22T10:07:07.138Z,6.82
2017-12-22T10:09:33.824Z,7.18
2017-12-22T10:12:00.491Z,7.56
2017-12-22T10:14:27.861Z,7.86
2017-12-22T10:16:55.260Z,8.04
2017-12-22T10:19:21.914Z,8.27
2017-12-22T10:21:48.562Z,8.27
2017-12-22T10:24:15.562Z,8.43
2017-12-22T10:26:42.202Z,8.79
2017-12-22T10:29:09.590Z,9.27
2017-12-22T10:31:36.304Z,9.57
2017-12-22T10:34:03.696Z,9.96
2017-12-22T10:36:30.344Z,10.45
2017-12-22T10:38:58.132Z,10.72
2017-12-22T10:41:24.754Z,10.87
2017-12-22T10:43:51.394Z,11.35
2017-12-22T10:46:18.050Z,11.66
2017-12-22T10:48:44.691Z,12.20
2017-12-22T10:51:11.370Z,12.49
2017-12-22T10:53:38.774Z,12.84
2017-12-22T10:56:05.405Z,13.08
2017-12-22T10:58:32.061Z,12.60
2017-12-22T11:00:58.742Z,13.39
2017-12-22T11:03:25.409Z,15.78
2017-12-22T11:05:52.802Z,16.56
2017-12-22T11:08:19.447Z,16.37
2017-12-22T11:10:46.095Z,15.17
2017-12-22T11:13:12.753Z,15.45
2017-12-22T11:15:39.425Z,14.51
2017-12-22T11:18:06.849Z,14.56
2017-12-22T11:20:33.524Z,14.92
2017-12-22T11:23:00.204Z,14.99
2017-12-22T11:25:26.833Z,14.84
2017-12-22T11:27:53.512Z,13.90
2017-12-22T11:30:20.183Z,13.11
2017-12-22T11:32:46.816Z,13.17
2017-12-22T11:35:13.489Z,13.16
2017-12-22T11:37:40.866Z,14.71
2017-12-22T11:40:07.547Z,15.53
2017-12-22T11:42:34.965Z,15.15
2017-12-22T11:45:01.641Z,14.95
2017-12-22T11:47:28.304Z,15.55
2017-12-22T11:49:54.993Z,15.77
2017-12-22T11:52:21.645Z,15.01
2017-12-22T11:54:48.881Z,13.31
2017-12-22T11:57:17.276Z,12.58
2017-12-22T11:59:44.648Z,12.28
2017-12-22T12:02:11.299Z,11.53
2017-12-22T12:04:37.975Z,11.37
2017-12-22T12:07:04.675Z,10.89
2017-12-22T12:09:31.364Z,10.25
2017-12-22T12:11:58.040Z,9.89
2017-12-22T12:14:25.431Z,9.61
2017-12-22T12:16:52.786Z,10.25
2017-12-22T12:19:19.508Z,10.48
2017-12-22T12:21:46.179Z,10.71
2017-12-22T12:24:12.853Z,10.64
2017-12-22T12:26:39.519Z,12.09
2017-12-22T12:29:07.933Z,13.83
2017-12-22T12:31:34.589Z,13.35
2017-12-22T12:34:01.282Z,13.63
2017-12-22T12:36:27.934Z,13.98
2017-12-22T12:38:55.340Z,13.23
2017-12-22T12:41:22.024Z,13.27
2017-12-22T12:43:49.440Z,13.06
2017-12-22T12:46:16.086Z,13.15
2017-12-22T12:48:42.768Z,12.94
2017-12-22T12:51:09.425Z,12.54
2017-12-22T12:53:36.920Z,11.89
2017-12-22T12:56:04.837Z,11.76
2017-12-22T12:58:31.477Z,11.71
2017-12-22T13:00:58.203Z,11.42
2017-12-22T13:03:24.887Z,11.16
2017-12-22T13:05:52.294Z,10.93
2017-12-22T13:08:18.953Z,10.20
2017-12-22T13:10:45.726Z,9.29
2017-12-22T13:13:13.158Z,8.70
2017-12-22T13:15:40.707Z,8.18
2017-12-22T13:18:07.531Z,8.19
2017-12-22T13:20:34.173Z,8.22
2017-12-22T13:23:00.825Z,8.16
2017-12-22T13:25:27.552Z,8.11
2017-12-22T13:27:54.221Z,8.23
2017-12-22T13:30:20.846Z,8.01
2017-12-22T13:32:47.517Z,8.04
2017-12-22T13:35:14.176Z,8.08
2017-12-22T13:37:40.855Z,7.92
2017-12-22T13:40:07.555Z,7.53
2017-12-22T13:42:34.212Z,7.71
2017-12-22T13:45:00.876Z,7.79
2017-12-22T13:47:28.301Z,7.46
2017-12-22T13:49:55.782Z,7.24
2017-12-22T13:52:22.431Z,7.50
2017-12-22T13:54:49.078Z,7.51
2017-12-22T13:57:16.478Z,7.60
2017-12-22T13:59:43.206Z,7.66
2017-12-22T14:02:09.886Z,7.49
2017-12-22T14:04:36.586Z,7.46
2017-12-22T14:07:03.230Z,7.34
2017-12-22T14:09:29.901Z,7.45
2017-12-22T14:11:56.573Z,7.33
2017-12-22T14:14:24.046Z,7.38
2017-12-22T14:16:51.475Z,7.42
2017-12-22T14:19:18.118Z,7.39
2017-12-22T14:21:44.762Z,7.44
2017-12-22T14:24:12.178Z,7.39
2017-12-22T14:26:38.808Z,7.27
2017-12-22T14:29:06.218Z,7.22
2017-12-22T14:31:32.914Z,7.15
2017-12-22T14:34:00.319Z,7.22
2017-12-22T14:36:27.773Z,7.25
2017-12-22T14:38:54.447Z,7.39
2017-12-22T14:41:21.138Z,7.54
2017-12-22T14:43:47.798Z,7.37
2017-12-22T14:46:14.485Z,7.19
2017-12-22T14:48:41.125Z,6.94
2017-12-22T14:51:07.772Z,7.16
2017-12-22T14:53:35.194Z,7.28
2017-12-22T14:56:01.822Z,7.43
2017-12-22T14:58:28.481Z,7.31
2017-12-22T15:00:55.155Z,7.29
2017-12-22T15:03:22.549Z,6.91
2017-12-22T15:05:49.234Z,6.54
2017-12-22T15:08:15.895Z,6.44
2017-12-22T15:10:42.542Z,6.64
2017-12-22T15:13:09.202Z,6.74
2017-12-22T15:15:36.644Z,6.40
2017-12-22T15:18:03.301Z,6.31
2017-12-22T15:20:30.708Z,6.44
2017-12-22T15:22:57.363Z,6.51
2017-12-22T15:25:24.759Z,6.45
2017-12-22T15:27:52.182Z,6.48
2017-12-22T15:30:18.882Z,6.53
2017-12-22T15:32:45.531Z,6.44
2017-12-22T15:35:12.170Z,6.28
2017-12-22T15:37:38.858Z,6.19
2017-12-22T15:40:05.503Z,6.04
2017-12-22T15:42:32.177Z,6.03
2017-12-22T15:44:59.647Z,6.00
2017-12-22T15:47:27.043Z,5.85
2017-12-22T15:49:53.680Z,5.67
2017-12-22T15:52:20.422Z,5.61
2017-12-22T15:54:47.075Z,5.59
2017-12-22T15:57:13.726Z,5.34
2017-12-22T15:59:40.518Z,5.03
2017-12-22T16:02:07.936Z,4.95
2017-12-22T16:04:34.581Z,4.86
2017-12-22T16:07:01.264Z,4.75
2017-12-22T16:09:27.932Z,4.77
2017-12-22T16:11:54.570Z,4.66
2017-12-22T16:14:21.258Z,4.69
2017-12-22T16:16:47.905Z,4.49
2017-12-22T16:19:14.562Z,4.54
2017-12-22T16:21:42.012Z,4.45
2017-12-22T16:24:08.686Z,4.53
2017-12-22T16:26:35.362Z,4.53
2017-12-22T16:29:02.094Z,4.51
2017-12-22T16:31:28.726Z,4.25
2017-12-22T16:33:55.383Z,4.33
2017-12-22T16:36:22.147Z,4.40
2017-12-22T16:38:48.811Z,4.44
2017-12-22T16:41:15.465Z,4.43
2017-12-22T16:43:42.140Z,4.14
2017-12-22T16:46:08.823Z,4.26
2017-12-22T16:48:38.112Z,4.24
2017-12-22T16:51:04.785Z,3.83
2017-12-22T16:53:31.434Z,3.96
2017-12-22T16:55:59.809Z,4.04
2017-12-22T16:58:27.155Z,3.96
2017-12-22T17:00:53.816Z,3.79
2017-12-22T17:03:20.494Z,3.28
2017-12-22T17:05:47.173Z,3.22
2017-12-22T17:08:13.873Z,3.36
2017-12-22T17:10:41.282Z,3.21
2017-12-22T17:13:07.959Z,3.10
2017-12-22T17:15:35.382Z,3.35
2017-12-22T17:18:02.019Z,3.42
2017-12-22T17:20:28.693Z,3.46
2017-12-22T17:22:55.341Z,3.49
2017-12-22T17:25:21.988Z,3.43
2017-12-22T17:27:49.411Z,3.31
2017-12-22T17:30:16.166Z,3.41
2017-12-22T17:32:42.809Z,2.97
2017-12-22T17:35:09.497Z,3.06
2017-12-22T17:37:36.155Z,3.15
2017-12-22T17:40:02.858Z,3.11
2017-12-22T17:42:29.514Z,3.00
2017-12-22T17:44:56.895Z,2.80
2017-12-22T17:47:23.568Z,2.78
2017-12-22T17:49:51.133Z,2.94
2017-12-22T17:52:17.813Z,2.78
2017-12-22T17:54:45.235Z,2.98
2017-12-22T17:57:11.904Z,3.02
2017-12-22T17:59:38.559Z,2.93
2017-12-22T18:02:06.009Z,2.71
2017-12-22T18:04:32.678Z,2.59
2017-12-22T18:07:00.189Z,2.48
2017-12-22T18:09:26.921Z,2.39
2017-12-22T18:11:54.511Z,2.33
2017-12-22T18:14:22.052Z,2.28
2017-12-22T18:16:48.689Z,2.25
2017-12-22T18:19:15.369Z,2.46
2017-12-22T18:21:42.034Z,2.57
2017-12-22T18:24:09.434Z,2.55
2017-12-22T18:26:36.895Z,2.46
2017-12-22T18:29:03.612Z,2.41
2017-12-22T18:31:30.270Z,2.08
2017-12-22T18:33:56.995Z,2.10
2017-12-22T18:36:23.668Z,2.01
2017-12-22T18:38:50.337Z,2.12
2017-12-22T18:41:17.122Z,2.31
2017-12-22T18:43:44.522Z,2.21
2017-12-22T18:46:11.171Z,2.36
2017-12-22T18:48:37.849Z,2.40
2017-12-22T18:51:05.251Z,2.39
2017-12-22T18:53:31.897Z,2.41
2017-12-22T18:55:58.589Z,2.41
2017-12-22T18:58:25.213Z,2.43
2017-12-22T19:00:51.892Z,2.42
2017-12-22T19:03:29.590Z,2.16
2017-12-22T19:05:57.035Z,2.29
2017-12-22T19:08:23.985Z,2.30
2017-12-22T19:10:52.313Z,2.29
2017-12-22T19:13:18.993Z,2.38
2017-12-22T19:15:45.642Z,2.26
2017-12-22T19:18:12.346Z,2.29
2017-12-22T19:20:39.009Z,2.42
2017-12-22T19:23:05.917Z,2.35
2017-12-22T19:25:32.597Z,2.49
2017-12-22T19:28:00.466Z,2.49
2017-12-22T19:30:27.482Z,2.36
2017-12-22T19:32:54.471Z,2.43
2017-12-22T19:35:21.120Z,2.58
2017-12-22T19:37:47.970Z,2.60
2017-12-22T19:40:14.633Z,2.66
2017-12-22T19:42:41.377Z,2.44
2017-12-22T19:45:08.039Z,2.51
2017-12-22T19:47:36.267Z,2.58
2017-12-22T19:50:02.960Z,2.49
2017-12-22T19:52:30.700Z,2.46
2017-12-22T19:54:57.422Z,2.61
2017-12-22T19:57:24.087Z,2.63
2017-12-22T19:59:50.794Z,2.49
2017-12-22T20:02:17.501Z,2.46
2017-12-22T20:04:44.962Z,2.57
2017-12-22T20:07:12.359Z,2.68
2017-12-22T20:09:39.054Z,2.58
2017-12-22T20:12:06.462Z,2.64
2017-12-22T20:14:33.098Z,2.65
2017-12-22T20:17:00.938Z,2.69
2017-12-22T20:19:27.772Z,2.65
2017-12-22T20:21:54.677Z,2.65
2017-12-22T20:24:21.447Z,2.67
2017-12-22T20:26:48.092Z,2.65
2017-12-22T20:29:14.934Z,2.53
2017-12-22T20:31:42.449Z,2.55
2017-12-22T20:34:09.114Z,2.52
2017-12-22T20:36:35.767Z,2.59
2017-12-22T20:39:02.549Z,2.79
2017-12-22T20:41:30.948Z,2.95
2017-12-22T20:43:57.605Z,3.03
2017-12-22T20:46:24.525Z,3.04
2017-12-22T20:48:51.985Z,3.03
2017-12-22T20:51:19.420Z,3.00
2017-12-22T20:53:47.789Z,2.84
2017-12-22T20:56:15.205Z,2.56
2017-12-22T20:58:41.884Z,2.65
2017-12-22T21:01:08.538Z,2.67
2017-12-22T21:03:35.279Z,2.80
2017-12-22T21:06:01.951Z,2.79
2017-12-22T21:08:28.689Z,2.74
2017-12-22T21:10:55.697Z,2.75
2017-12-22T21:13:22.675Z,2.83
2017-12-22T21:15:49.334Z,2.84
2017-12-22T21:18:15.993Z,2.58
2017-12-22T21:20:43.414Z,2.57
2017-12-22T21:23:10.049Z,2.45
2017-12-22T21:25:36.905Z,2.47
2017-12-22T21:28:03.578Z,2.49
2017-12-22T21:30:30.959Z,2.45
2017-12-22T21:32:57.640Z,2.35
2017-12-22T21:35:25.060Z,2.37
2017-12-22T21:37:51.735Z,2.22
2017-12-22T21:40:18.567Z,2.38
2017-12-22T21:42:45.280Z,2.41
2017-12-22T21:45:12.682Z,2.40
2017-12-22T21:47:40.231Z,2.39
2017-12-22T21:50:06.894Z,2.31
2017-12-22T21:52:33.549Z,2.34
2017-12-22T21:55:00.239Z,2.32
2017-12-22T21:57:28.625Z,1.89
2017-12-22T21:59:55.276Z,1.92
2017-12-22T22:02:21.957Z,1.98
2017-12-22T22:04:49.378Z,1.64
2017-12-22T22:07:16.022Z,1.56
2017-12-22T22:09:42.702Z,1.51
2017-12-22T22:12:09.372Z,1.49
2017-12-22T22:14:36.013Z,1.62
2017-12-22T22:17:03.581Z,1.72
2017-12-22T22:19:31.315Z,1.77
2017-12-22T22:21:57.953Z,1.80
2017-12-22T22:24:25.603Z,1.73
2017-12-22T22:26:52.284Z,1.51
2017-12-22T22:29:20.792Z,1.64
2017-12-22T22:31:49.838Z,1.67
2017-12-22T22:34:16.552Z,1.71
2017-12-22T22:36:43.203Z,1.65
2017-12-22T22:39:09.986Z,1.66
2017-12-22T22:41:36.627Z,1.45
2017-12-22T22:44:03.378Z,1.47
2017-12-22T22:46:31.097Z,1.55
2017-12-22T22:48:57.787Z,1.66
2017-12-22T22:51:24.491Z,1.64
2017-12-22T22:53:51.551Z,1.73
2017-12-22T22:56:18.366Z,1.84
2017-12-22T22:58:46.515Z,1.74
2017-12-22T23:01:13.170Z,1.64
2017-12-22T23:03:39.833Z,1.56
2017-12-22T23:06:07.231Z,1.36
2017-12-22T23:08:33.878Z,1.43
2017-12-22T23:11:00.558Z,1.33
2017-12-22T23:13:28.042Z,1.32
2017-12-22T23:15:56.501Z,1.08
2017-12-22T23:18:23.175Z,1.15
2017-12-22T23:20:49.910Z,0.87
2017-12-22T23:23:17.298Z,0.95
2017-12-22T23:25:43.980Z,0.98
2017-12-22T23:28:10.621Z,1.01
2017-12-22T23:30:38.149Z,0.71
2017-12-22T23:33:05.114Z,0.84
2017-12-22T23:35:31.790Z,1.00
2017-12-22T23:37:59.384Z,0.84
2017-12-22T23:40:26.675Z,0.66
2017-12-22T23:42:53.325Z,0.71
2017-12-22T23:45:19.989Z,0.59
2017-12-22T23:47:46.651Z,0.55
2017-12-22T23:50:14.063Z,0.66
2017-12-22T23:52:40.767Z,0.85
2017-12-22T23:55:07.515Z,0.97
2017-12-22T23:57:34.327Z,0.90
